createdAt,value
2023-12-31T00:02:14.395Z,100407.41
2023-12-31T00:04:42.226Z,100413.28
2023-12-31T00:07:10.492Z,100410.41
2023-12-31T00:09:38.101Z,100410.78
2023-12-31T00:12:06.514Z,100402.22
2023-12-31T00:14:34.508Z,100408.75
2023-12-31T00:17:02.125Z,100409.53
2023-12-31T00:19:31.234Z,100404.22
2023-12-31T00:21:59.181Z,100401.94
2023-12-31T00:24:26.804Z,100395.44
2023-12-31T00:26:54.405Z,100393.38
2023-12-31T00:29:24.549Z,100400.06
2023-12-31T00:31:53.765Z,100393.75
2023-12-31T00:34:21.473Z,100395.16
2023-12-31T00:36:51.243Z,100409.19
2023-12-31T00:39:18.902Z,100400.84
2023-12-31T00:41:47.295Z,100400.47
2023-12-31T00:44:15.894Z,100393.25
2023-12-31T00:46:43.621Z,100386.28
2023-12-31T00:49:11.340Z,100384.84
2023-12-31T00:51:38.968Z,100382.19
2023-12-31T00:54:08.065Z,100381.31
2023-12-31T00:56:35.691Z,100378.22
2023-12-31T00:59:04.372Z,100377.50
2023-12-31T01:01:33.196Z,100374.47
2023-12-31T01:04:01.018Z,100374.47
2023-12-31T01:06:28.739Z,100372.88
2023-12-31T01:08:59.114Z,100371.59
2023-12-31T01:11:28.802Z,100365.91
2023-12-31T01:13:56.606Z,100367.06
2023-12-31T01:16:24.306Z,100361.75
2023-12-31T01:18:52.031Z,100363.47
2023-12-31T01:21:19.937Z,100353.53
2023-12-31T01:23:47.880Z,100362.09
2023-12-31T01:26:16.071Z,100354.75
2023-12-31T01:28:45.087Z,100350.63
2023-12-31T01:31:19.635Z,100348.59
2023-12-31T01:33:47.842Z,100347.66
2023-12-31T01:36:16.761Z,100337.16
2023-12-31T01:38:44.808Z,100334.94
2023-12-31T01:41:12.646Z,100338.75
2023-12-31T01:43:40.633Z,100333.63
2023-12-31T01:46:11.868Z,100343.56
2023-12-31T01:48:41.433Z,100343.63
2023-12-31T01:51:09.116Z,100335.59
2023-12-31T01:53:36.780Z,100331.31
2023-12-31T01:56:04.815Z,100328.03
2023-12-31T01:58:32.607Z,100331.72
2023-12-31T02:01:00.537Z,100329.34
2023-12-31T02:03:31.628Z,100327.53
2023-12-31T02:05:59.783Z,100329.81
2023-12-31T02:08:27.570Z,100321.03
2023-12-31T02:10:55.733Z,100327.00
2023-12-31T02:13:23.497Z,100328.59
2023-12-31T02:15:54.163Z,100319.28
2023-12-31T02:18:22.138Z,100316.00
2023-12-31T02:20:51.229Z,100309.66
2023-12-31T02:23:19.338Z,100309.31
2023-12-31T02:25:52.716Z,100298.50
2023-12-31T02:28:21.991Z,100291.38
2023-12-31T02:30:49.692Z,100294.19
2023-12-31T02:33:17.550Z,100302.44
2023-12-31T02:35:45.288Z,100289.94
2023-12-31T02:38:12.938Z,100298.97
2023-12-31T02:40:40.613Z,100291.59
2023-12-31T02:43:08.236Z,100280.97
2023-12-31T02:45:37.553Z,100283.84
2023-12-31T02:48:06.265Z,100271.63
2023-12-31T02:50:33.945Z,100272.00
2023-12-31T02:53:01.818Z,100265.94
2023-12-31T02:55:29.688Z,100268.31
2023-12-31T02:57:57.284Z,100261.22
2023-12-31T03:00:24.875Z,100262.88
2023-12-31T03:02:53.906Z,100256.88
2023-12-31T03:05:21.598Z,100259.34
2023-12-31T03:07:49.283Z,100250.56
2023-12-31T03:10:17.368Z,100254.91
2023-12-31T03:12:44.971Z,100256.94
2023-12-31T03:15:12.811Z,100251.19
2023-12-31T03:17:40.517Z,100248.13
2023-12-31T03:20:11.319Z,100246.09
2023-12-31T03:22:42.394Z,100244.69
2023-12-31T03:25:11.347Z,100237.75
2023-12-31T03:27:39.195Z,100244.69
2023-12-31T03:30:08.113Z,100240.63
2023-12-31T03:32:35.835Z,100235.31
2023-12-31T03:35:03.635Z,100231.66
2023-12-31T03:37:33.043Z,100222.91
2023-12-31T03:40:00.781Z,100220.84
2023-12-31T03:42:28.395Z,100207.56
2023-12-31T03:44:55.986Z,100213.25
2023-12-31T03:47:24.644Z,100206.75
2023-12-31T03:49:52.359Z,100207.16
2023-12-31T03:52:20.071Z,100205.06
2023-12-31T03:54:49.172Z,100198.53
2023-12-31T03:57:16.767Z,100192.44
2023-12-31T03:59:44.383Z,100199.00
2023-12-31T04:02:12.133Z,100194.28
2023-12-31T04:04:39.989Z,100191.44
2023-12-31T04:07:07.643Z,100181.44
2023-12-31T04:09:35.200Z,100176.97
2023-12-31T04:12:05.934Z,100175.09
2023-12-31T04:14:33.541Z,100173.06
2023-12-31T04:17:01.061Z,100166.94
2023-12-31T04:19:28.811Z,100174.06
2023-12-31T04:21:56.518Z,100170.16
2023-12-31T04:24:24.076Z,100172.25
2023-12-31T04:26:51.758Z,100162.03
2023-12-31T04:29:21.337Z,100162.63
2023-12-31T04:31:52.787Z,100161.00
2023-12-31T04:34:22.741Z,100156.31
2023-12-31T04:36:50.325Z,100148.75
2023-12-31T04:39:17.901Z,100144.47
2023-12-31T04:41:45.541Z,100146.88
2023-12-31T04:44:13.252Z,100137.72
2023-12-31T04:46:42.522Z,100129.53
2023-12-31T04:49:10.238Z,100128.31
2023-12-31T04:51:37.853Z,100126.72
2023-12-31T04:54:05.725Z,100120.97
2023-12-31T04:56:33.927Z,100121.16
2023-12-31T04:59:01.855Z,100118.13
2023-12-31T05:01:33.158Z,100119.75
2023-12-31T05:04:03.177Z,100118.31
2023-12-31T05:06:30.890Z,100111.19
2023-12-31T05:08:59.125Z,100097.31
2023-12-31T05:11:27.735Z,100097.72
2023-12-31T05:13:55.478Z,100104.22
2023-12-31T05:16:23.169Z,100088.31
2023-12-31T05:18:51.957Z,100087.28
2023-12-31T05:21:21.585Z,100090.75
2023-12-31T05:23:49.193Z,100091.97
2023-12-31T05:26:17.056Z,100092.38
2023-12-31T05:28:44.783Z,100082.78
2023-12-31T05:31:12.541Z,100073.63
2023-12-31T05:33:40.237Z,100068.31
2023-12-31T05:36:08.275Z,100054.22
2023-12-31T05:38:37.639Z,100053.63
2023-12-31T05:41:05.776Z,100043.59
2023-12-31T05:43:33.461Z,100043.81
2023-12-31T05:46:02.199Z,100041.78
2023-12-31T05:48:30.277Z,100047.06
2023-12-31T05:50:58.050Z,100046.66
2023-12-31T05:53:25.666Z,100042.56
2023-12-31T05:55:54.633Z,100042.16
2023-12-31T05:58:22.366Z,100036.47
2023-12-31T06:00:50.080Z,100027.91
2023-12-31T06:03:17.720Z,100016.66
2023-12-31T06:05:45.482Z,100016.66
2023-12-31T06:08:13.374Z,100006.25
2023-12-31T06:10:40.987Z,99996.84
2023-12-31T06:13:10.022Z,99995.00
2023-12-31T06:15:37.762Z,99989.09
2023-12-31T06:18:06.234Z,99984.78
2023-12-31T06:20:33.926Z,99976.00
2023-12-31T06:23:01.630Z,99971.09
2023-12-31T06:25:29.868Z,99967.00
2023-12-31T06:27:58.270Z,99964.38
2023-12-31T06:30:27.518Z,99963.75
2023-12-31T06:32:55.164Z,99971.13
2023-12-31T06:35:22.836Z,99968.47
2023-12-31T06:37:50.656Z,99975.19
2023-12-31T06:40:18.438Z,99975.59
2023-12-31T06:42:46.097Z,99977.44
2023-12-31T06:45:13.808Z,99970.28
2023-12-31T06:47:42.734Z,99968.47
2023-12-31T06:50:11.938Z,99968.47
2023-12-31T06:52:39.933Z,99955.38
2023-12-31T06:55:08.218Z,99958.84
2023-12-31T06:57:35.908Z,99953.53
2023-12-31T07:00:03.704Z,99949.03
2023-12-31T07:02:31.383Z,99942.13
2023-12-31T07:05:00.540Z,99947.84
2023-12-31T07:07:28.294Z,99948.22
2023-12-31T07:09:56.030Z,99949.88
2023-12-31T07:12:23.654Z,99946.63
2023-12-31T07:14:51.308Z,99946.41
2023-12-31T07:17:19.164Z,99932.94
2023-12-31T07:19:57.235Z,99933.94
2023-12-31T07:22:26.725Z,99928.22
2023-12-31T07:24:54.472Z,99920.66
2023-12-31T07:27:22.120Z,99924.75
2023-12-31T07:29:49.701Z,99916.78
2023-12-31T07:32:17.372Z,99920.06
2023-12-31T07:34:45.166Z,99926.38
2023-12-31T07:37:12.690Z,99923.75
2023-12-31T07:39:43.677Z,99920.88
2023-12-31T07:42:11.316Z,99919.22
2023-12-31T07:44:38.934Z,99918.81
2023-12-31T07:47:06.721Z,99920.88
2023-12-31T07:49:35.092Z,99920.88
2023-12-31T07:52:03.077Z,99908.63
2023-12-31T07:54:30.821Z,99910.44
2023-12-31T07:57:00.716Z,99902.06
2023-12-31T07:59:28.430Z,99903.69
2023-12-31T08:01:56.840Z,99903.53
2023-12-31T08:04:24.590Z,99894.50
2023-12-31T08:06:52.370Z,99890.22
2023-12-31T08:09:20.113Z,99896.13
2023-12-31T08:11:47.905Z,99882.44
2023-12-31T08:14:16.888Z,99884.31
2023-12-31T08:16:44.703Z,99880.19
2023-12-31T08:19:13.151Z,99873.50
2023-12-31T08:21:40.830Z,99872.88
2023-12-31T08:24:08.824Z,99863.69
2023-12-31T08:26:38.051Z,99857.78
2023-12-31T08:29:05.749Z,99852.06
2023-12-31T08:31:36.604Z,99856.72
2023-12-31T08:34:05.255Z,99846.97
2023-12-31T08:36:32.980Z,99840.00
2023-12-31T08:39:00.558Z,99846.53
2023-12-31T08:41:28.836Z,99850.41
2023-12-31T08:43:56.463Z,99846.94
2023-12-31T08:46:24.165Z,99841.66
2023-12-31T08:48:53.215Z,99832.66
2023-12-31T08:51:21.092Z,99832.25
2023-12-31T08:53:48.789Z,99825.75
2023-12-31T08:56:16.393Z,99820.03
2023-12-31T08:58:44.004Z,99809.41
2023-12-31T09:01:13.655Z,99811.84
2023-12-31T09:03:41.299Z,99810.44
2023-12-31T09:06:11.893Z,99803.28
2023-12-31T09:08:39.496Z,99794.09
2023-12-31T09:11:07.150Z,99794.72
2023-12-31T09:13:34.731Z,99780.00
2023-12-31T09:16:02.368Z,99787.56
2023-12-31T09:18:30.084Z,99791.84
2023-12-31T09:20:57.711Z,99781.22
2023-12-31T09:23:26.695Z,99783.66
2023-12-31T09:25:54.923Z,99792.25
2023-12-31T09:28:22.923Z,99790.19
2023-12-31T09:30:51.615Z,99787.13
2023-12-31T09:33:19.476Z,99784.66
2023-12-31T09:35:47.095Z,99773.44
2023-12-31T09:38:14.698Z,99773.84
2023-12-31T09:40:44.833Z,99769.56
2023-12-31T09:43:15.963Z,99752.78
2023-12-31T09:45:43.934Z,99757.09
2023-12-31T09:48:13.145Z,99747.06
2023-12-31T09:50:40.788Z,99751.78
2023-12-31T09:53:09.793Z,99744.22
2023-12-31T09:55:38.590Z,99735.84
2023-12-31T09:58:08.394Z,99730.13
2023-12-31T10:00:37.249Z,99725.00
2023-12-31T10:03:06.204Z,99717.03
2023-12-31T10:05:37.066Z,99712.47
2023-12-31T10:08:06.457Z,99710.91
2023-12-31T10:10:35.988Z,99700.25
2023-12-31T10:13:04.037Z,99700.50
2023-12-31T10:15:33.368Z,99691.44
2023-12-31T10:18:07.349Z,99688.56
2023-12-31T10:20:37.137Z,99684.06
2023-12-31T10:23:05.461Z,99688.09
2023-12-31T10:25:33.468Z,99677.47
2023-12-31T10:28:01.152Z,99671.16
2023-12-31T10:30:29.432Z,99666.53
2023-12-31T10:33:09.828Z,99666.69
2023-12-31T10:35:37.573Z,99659.94
2023-12-31T10:38:06.929Z,99660.72
2023-12-31T10:40:35.350Z,99649.25
2023-12-31T10:43:08.700Z,99644.75
2023-12-31T10:45:38.908Z,99640.03
2023-12-31T10:48:09.608Z,99644.13
2023-12-31T10:50:40.083Z,99642.25
2023-12-31T10:53:12.669Z,99631.81
2023-12-31T10:55:42.595Z,99608.50
2023-12-31T10:58:11.000Z,99618.09
2023-12-31T11:00:39.580Z,99610.88
2023-12-31T11:03:11.932Z,99594.19
2023-12-31T11:05:42.107Z,99589.31
2023-12-31T11:08:10.805Z,99575.41
2023-12-31T11:10:38.514Z,99588.28
2023-12-31T11:13:07.248Z,99578.63
2023-12-31T11:15:36.622Z,99580.47
2023-12-31T11:18:20.590Z,99577.38
2023-12-31T11:21:11.556Z,99575.75
2023-12-31T11:23:47.444Z,99575.75
2023-12-31T11:26:15.400Z,99569.13
2023-12-31T11:28:49.217Z,99566.63
2023-12-31T11:31:17.076Z,99551.44
2023-12-31T11:33:46.721Z,99542.72
2023-12-31T11:36:16.006Z,99541.25
2023-12-31T11:38:54.683Z,99539.31
2023-12-31T11:41:24.592Z,99541.41
2023-12-31T11:43:53.038Z,99526.78
2023-12-31T11:46:39.715Z,99522.66
2023-12-31T11:49:10.530Z,99522.66
2023-12-31T11:51:55.625Z,99519.56
2023-12-31T11:54:24.063Z,99511.88
2023-12-31T11:56:53.584Z,99509.97
2023-12-31T11:59:21.520Z,99514.25
2023-12-31T12:01:53.653Z,99508.63
2023-12-31T12:04:23.248Z,99504.25
2023-12-31T12:06:51.430Z,99507.00
2023-12-31T12:09:22.655Z,99491.72
2023-12-31T12:11:50.259Z,99488.38
2023-12-31T12:14:18.016Z,99490.00
2023-12-31T12:16:46.633Z,99492.34
2023-12-31T12:19:14.357Z,99485.75
2023-12-31T12:21:43.558Z,99481.25
2023-12-31T12:24:11.622Z,99476.03
2023-12-31T12:26:39.696Z,99481.38
2023-12-31T12:29:07.305Z,99480.56
2023-12-31T12:31:38.254Z,99470.22
2023-12-31T12:34:07.207Z,99465.75
2023-12-31T12:36:35.449Z,99472.41
2023-12-31T12:39:04.784Z,99466.19
2023-12-31T12:41:33.714Z,99462.34
2023-12-31T12:44:02.448Z,99461.19
2023-12-31T12:46:31.460Z,99455.81
2023-12-31T12:49:00.450Z,99440.94
2023-12-31T12:51:28.654Z,99442.59
2023-12-31T12:53:56.890Z,99440.50
2023-12-31T12:56:26.291Z,99428.81
2023-12-31T12:58:54.624Z,99425.03
2023-12-31T13:01:22.582Z,99415.78
2023-12-31T13:03:50.707Z,99415.94
2023-12-31T13:06:18.294Z,99413.94
2023-12-31T13:08:45.860Z,99422.38
2023-12-31T13:11:14.103Z,99423.19
2023-12-31T13:13:43.403Z,99422.00
2023-12-31T13:16:18.459Z,99431.50
2023-12-31T13:18:51.043Z,99411.38
2023-12-31T13:21:18.922Z,99418.78
2023-12-31T13:23:46.498Z,99417.97
2023-12-31T13:26:14.408Z,99403.41
2023-12-31T13:28:43.380Z,99407.56
2023-12-31T13:31:11.139Z,99401.19
2023-12-31T13:33:38.736Z,99390.09
2023-12-31T13:36:07.609Z,99397.94
2023-12-31T13:38:35.212Z,99399.91
2023-12-31T13:41:03.143Z,99399.13
2023-12-31T13:43:31.109Z,99396.75
2023-12-31T13:46:00.263Z,99393.97
2023-12-31T13:48:27.978Z,99390.66
2023-12-31T13:50:55.885Z,99384.28
2023-12-31T13:53:23.731Z,99390.50
2023-12-31T13:55:51.412Z,99390.44
2023-12-31T13:58:19.053Z,99383.75
2023-12-31T14:00:52.988Z,99386.97
2023-12-31T14:03:22.062Z,99375.22
2023-12-31T14:05:50.528Z,99367.59
2023-12-31T14:08:18.597Z,99370.06
2023-12-31T14:10:46.381Z,99378.50
2023-12-31T14:13:14.109Z,99379.09
2023-12-31T14:15:41.707Z,99376.22
2023-12-31T14:18:09.376Z,99377.16
2023-12-31T14:20:38.341Z,99372.91
2023-12-31T14:23:06.361Z,99371.25
2023-12-31T14:25:34.177Z,99373.78
2023-12-31T14:28:01.754Z,99367.13
2023-12-31T14:30:29.337Z,99377.66
2023-12-31T14:32:57.416Z,99369.53
2023-12-31T14:35:25.403Z,99366.22
2023-12-31T14:37:54.460Z,99358.09
2023-12-31T14:40:23.358Z,99356.03
2023-12-31T14:42:50.963Z,99356.38
2023-12-31T14:45:18.661Z,99378.91
2023-12-31T14:47:46.268Z,99382.63
2023-12-31T14:50:13.957Z,99384.84
2023-12-31T14:52:42.005Z,99381.56
2023-12-31T14:55:11.033Z,99377.75
2023-12-31T14:57:40.026Z,99385.13
2023-12-31T15:00:09.525Z,99365.88
2023-12-31T15:02:37.095Z,99374.06
2023-12-31T15:05:12.024Z,99380.56
2023-12-31T15:07:45.375Z,99372.56
2023-12-31T15:10:14.542Z,99361.63
2023-12-31T15:12:42.361Z,99375.28
2023-12-31T15:15:10.425Z,99355.63
2023-12-31T15:17:38.098Z,99350.63
2023-12-31T15:20:07.000Z,99365.53
2023-12-31T15:22:34.788Z,99368.06
2023-12-31T15:25:02.566Z,99369.47
2023-12-31T15:27:32.764Z,99357.19
2023-12-31T15:30:05.265Z,99363.78
2023-12-31T15:32:33.997Z,99358.13
2023-12-31T15:35:02.002Z,99369.59
2023-12-31T15:37:30.196Z,99376.19
2023-12-31T15:39:58.003Z,99370.16
2023-12-31T15:42:27.599Z,99373.31
2023-12-31T15:44:56.507Z,99369.00
2023-12-31T15:47:27.345Z,99370.16
2023-12-31T15:49:55.325Z,99369.59
2023-12-31T15:52:23.078Z,99352.59
2023-12-31T15:54:50.755Z,99359.06
2023-12-31T15:57:18.346Z,99350.44
2023-12-31T15:59:46.108Z,99369.88
2023-12-31T16:02:19.334Z,99371.63
2023-12-31T16:04:47.741Z,99351.94
2023-12-31T16:07:16.924Z,99369.41
2023-12-31T16:09:44.594Z,99367.69
2023-12-31T16:12:12.248Z,99373.34
2023-12-31T16:14:39.903Z,99374.03
2023-12-31T16:17:07.610Z,99381.56
2023-12-31T16:19:36.739Z,99380.50
2023-12-31T16:22:04.670Z,99388.25
2023-12-31T16:24:31.322Z,99383.16
2023-12-31T16:26:58.884Z,99395.78
2023-12-31T16:29:26.596Z,99398.81
2023-12-31T16:31:54.267Z,99401.00
2023-12-31T16:34:21.995Z,99404.69
2023-12-31T16:36:50.942Z,99405.59
2023-12-31T16:39:18.533Z,99406.88
2023-12-31T16:41:46.079Z,99399.25
2023-12-31T16:44:13.813Z,99406.78
2023-12-31T16:46:41.419Z,99401.47
2023-12-31T16:49:09.115Z,99401.59
2023-12-31T16:51:36.982Z,99395.00
2023-12-31T16:54:06.131Z,99396.19
2023-12-31T16:56:33.742Z,99398.97
2023-12-31T16:59:01.276Z,99399.66
2023-12-31T17:01:30.763Z,99393.97
2023-12-31T17:03:58.430Z,99394.78
2023-12-31T17:06:26.011Z,99398.56
2023-12-31T17:08:53.651Z,99399.97
2023-12-31T17:11:22.788Z,99403.88
2023-12-31T17:13:50.424Z,99403.31
2023-12-31T17:16:18.022Z,99398.22
2023-12-31T17:18:45.753Z,99409.69
2023-12-31T17:21:13.294Z,99400.28
2023-12-31T17:23:40.889Z,99403.53
2023-12-31T17:26:08.479Z,99401.91
2023-12-31T17:28:37.456Z,99408.41
2023-12-31T17:31:05.391Z,99407.16
2023-12-31T17:33:33.074Z,99407.59
2023-12-31T17:36:00.712Z,99408.50
2023-12-31T17:38:28.371Z,99413.38
2023-12-31T17:40:56.005Z,99417.13
2023-12-31T17:43:23.668Z,99409.84
2023-12-31T17:45:52.620Z,99415.53
2023-12-31T17:48:20.360Z,99425.00
2023-12-31T17:50:48.218Z,99420.50
2023-12-31T17:53:15.806Z,99425.44
2023-12-31T17:55:43.390Z,99416.34
2023-12-31T17:58:11.028Z,99419.97
2023-12-31T18:00:38.647Z,99415.91
2023-12-31T18:03:07.819Z,99421.44
2023-12-31T18:05:35.442Z,99424.19
2023-12-31T18:08:05.068Z,99434.81
2023-12-31T18:10:32.918Z,99433.66
2023-12-31T18:13:00.519Z,99440.00
2023-12-31T18:15:28.079Z,99447.16
2023-12-31T18:17:55.892Z,99445.13
2023-12-31T18:20:24.929Z,99448.47
2023-12-31T18:22:52.530Z,99449.06
2023-12-31T18:25:20.175Z,99464.56
2023-12-31T18:27:47.743Z,99462.97
2023-12-31T18:30:21.694Z,99463.19
2023-12-31T18:32:53.810Z,99467.69
2023-12-31T18:35:21.372Z,99467.09
2023-12-31T18:37:50.891Z,99466.19
2023-12-31T18:40:18.740Z,99461.69
2023-12-31T18:42:46.294Z,99462.06
2023-12-31T18:45:14.075Z,99454.66
2023-12-31T18:47:41.812Z,99465.22
2023-12-31T18:50:09.676Z,99466.50
2023-12-31T18:52:37.899Z,99460.72
2023-12-31T18:55:08.383Z,99463.97
2023-12-31T18:57:36.008Z,99468.91
2023-12-31T19:00:05.272Z,99466.16
2023-12-31T19:02:32.901Z,99468.03
2023-12-31T19:05:00.559Z,99461.50
2023-12-31T19:07:28.261Z,99470.09
2023-12-31T19:09:55.908Z,99467.66
2023-12-31T19:12:25.580Z,99475.06
2023-12-31T19:14:53.143Z,99470.63
2023-12-31T19:17:20.873Z,99473.53
2023-12-31T19:19:48.842Z,99483.34
2023-12-31T19:22:16.407Z,99487.78
2023-12-31T19:24:44.099Z,99487.63
2023-12-31T19:27:11.670Z,99487.63
2023-12-31T19:29:40.522Z,99484.16
2023-12-31T19:32:08.553Z,99494.81
2023-12-31T19:34:36.174Z,99484.97
2023-12-31T19:37:05.928Z,99483.94
2023-12-31T19:39:36.957Z,99483.81
2023-12-31T19:42:05.907Z,99493.53
2023-12-31T19:44:36.655Z,99496.50
2023-12-31T19:47:06.977Z,99492.00
2023-12-31T19:49:35.181Z,99492.94
2023-12-31T19:52:04.166Z,99488.38
2023-12-31T19:54:31.856Z,99489.84
2023-12-31T19:56:59.408Z,99501.09
2023-12-31T19:59:26.980Z,99492.50
2023-12-31T20:01:55.676Z,99495.41
2023-12-31T20:04:24.732Z,99494.59
2023-12-31T20:06:54.001Z,99504.06
2023-12-31T20:09:22.562Z,99503.69
2023-12-31T20:11:50.270Z,99501.84
2023-12-31T20:14:19.325Z,99506.19
2023-12-31T20:16:46.938Z,99511.06
2023-12-31T20:19:14.717Z,99506.56
2023-12-31T20:21:44.006Z,99510.63
2023-12-31T20:24:16.178Z,99515.59
2023-12-31T20:26:43.862Z,99524.16
2023-12-31T20:29:12.799Z,99515.16
2023-12-31T20:31:42.374Z,99525.91
2023-12-31T20:34:10.038Z,99530.66
2023-12-31T20:36:37.643Z,99530.78
2023-12-31T20:39:06.689Z,99533.47
2023-12-31T20:41:34.223Z,99530.78
2023-12-31T20:44:01.870Z,99532.06
2023-12-31T20:46:30.865Z,99531.81
2023-12-31T20:48:58.666Z,99541.19
2023-12-31T20:51:26.342Z,99535.81
2023-12-31T20:53:54.043Z,99539.94
2023-12-31T20:56:22.999Z,99537.13
2023-12-31T20:58:52.096Z,99548.34
2023-12-31T21:01:21.314Z,99546.75
2023-12-31T21:03:49.274Z,99549.19
2023-12-31T21:06:17.020Z,99546.75
2023-12-31T21:08:44.632Z,99540.38
2023-12-31T21:11:12.328Z,99540.38
2023-12-31T21:13:41.964Z,99538.84
2023-12-31T21:16:09.918Z,99539.06
2023-12-31T21:18:37.533Z,99529.16
2023-12-31T21:21:05.251Z,99526.50
2023-12-31T21:23:34.949Z,99528.72
2023-12-31T21:26:03.966Z,99522.66
2023-12-31T21:28:33.357Z,99528.88
2023-12-31T21:31:02.909Z,99523.13
2023-12-31T21:33:30.790Z,99528.00
2023-12-31T21:35:58.426Z,99525.34
2023-12-31T21:38:26.134Z,99525.97
2023-12-31T21:40:53.869Z,99531.66
2023-12-31T21:43:21.682Z,99524.44
2023-12-31T21:45:49.398Z,99527.69
2023-12-31T21:48:18.376Z,99521.84
2023-12-31T21:50:46.205Z,99522.22
2023-12-31T21:53:14.787Z,99530.22
2023-12-31T21:55:54.342Z,99524.88
2023-12-31T21:58:30.454Z,99523.25
2023-12-31T22:00:59.484Z,99524.28
2023-12-31T22:03:28.795Z,99519.78
2023-12-31T22:05:56.607Z,99515.28
2023-12-31T22:08:24.344Z,99522.22
2023-12-31T22:10:51.969Z,99521.56
2023-12-31T22:13:19.699Z,99511.16
2023-12-31T22:15:47.399Z,99512.19
2023-12-31T22:18:15.243Z,99517.94
2023-12-31T22:20:44.894Z,99510.53
2023-12-31T22:23:12.727Z,99520.59
2023-12-31T22:25:40.526Z,99515.28
2023-12-31T22:28:08.395Z,99507.53
2023-12-31T22:30:35.978Z,99509.16
2023-12-31T22:33:03.726Z,99513.66
2023-12-31T22:35:31.326Z,99517.78
2023-12-31T22:38:00.401Z,99513.19
2023-12-31T22:40:28.215Z,99508.31
2023-12-31T22:42:57.081Z,99512.19
2023-12-31T22:45:24.869Z,99510.34
2023-12-31T22:47:52.464Z,99522.00
2023-12-31T22:50:20.431Z,99519.72
2023-12-31T22:52:48.130Z,99518.53
2023-12-31T22:55:17.328Z,99518.53
2023-12-31T22:57:44.932Z,99512.63
2023-12-31T23:00:16.515Z,99511.16
2023-12-31T23:02:44.696Z,99510.28
2023-12-31T23:05:12.465Z,99512.31
2023-12-31T23:07:40.301Z,99513.94
2023-12-31T23:10:09.262Z,99505.41
2023-12-31T23:12:38.337Z,99519.56
2023-12-31T23:15:08.726Z,99508.19
2023-12-31T23:17:37.778Z,99507.38
2023-12-31T23:20:07.076Z,99508.84
2023-12-31T23:22:35.087Z,99514.03
2023-12-31T23:25:02.897Z,99521.19
2023-12-31T23:27:30.559Z,99516.91
2023-12-31T23:30:00.277Z,99514.03
2023-12-31T23:32:28.036Z,99520.53
2023-12-31T23:34:55.770Z,99512.84
2023-12-31T23:37:23.732Z,99526.22
2023-12-31T23:39:51.390Z,99518.69
2023-12-31T23:42:19.046Z,99516.56
2023-12-31T23:44:46.732Z,99520.88
2023-12-31T23:47:15.731Z,99517.81
2023-12-31T23:49:43.374Z,99513.38
2023-12-31T23:52:11.358Z,99518.56
2023-12-31T23:54:40.383Z,99517.44
2023-12-31T23:57:09.871Z,99517.88
2023-12-31T23:59:37.783Z,99516.88
